createdAt,value
2023-03-28T00:00:44.923Z,2.22
2023-03-28T00:01:47.166Z,2.23
2023-03-28T00:02:49.354Z,2.18
2023-03-28T00:03:52.551Z,2.10
2023-03-28T00:04:54.986Z,1.93
2023-03-28T00:06:00.955Z,1.96
2023-03-28T00:07:03.581Z,2.00
2023-03-28T00:08:06.573Z,2.04
2023-03-28T00:09:09.137Z,2.07
2023-03-28T00:10:11.485Z,1.99
2023-03-28T00:11:19.785Z,1.96
2023-03-28T00:12:22.701Z,1.95
2023-03-28T00:13:24.918Z,1.97
2023-03-28T00:14:27.171Z,2.04
2023-03-28T00:15:30.042Z,1.98
2023-03-28T00:16:35.612Z,2.01
2023-03-28T00:17:38.421Z,1.92
2023-03-28T00:18:42.463Z,1.83
2023-03-28T00:19:46.981Z,1.87
2023-03-28T00:20:49.533Z,1.67
2023-03-28T00:21:51.711Z,1.69
2023-03-28T00:22:54.796Z,1.61
2023-03-28T00:24:01.921Z,1.70
2023-03-28T00:25:07.008Z,1.70
2023-03-28T00:26:09.712Z,1.66
2023-03-28T00:27:11.970Z,1.58
2023-03-28T00:28:14.162Z,1.60
2023-03-28T00:29:21.116Z,1.61
2023-03-28T00:30:23.625Z,1.63
2023-03-28T00:31:26.391Z,1.65
2023-03-28T00:32:28.945Z,1.66
2023-03-28T00:33:31.378Z,1.67
2023-03-28T00:34:33.638Z,1.60
2023-03-28T00:35:36.061Z,1.56
2023-03-28T00:36:39.751Z,1.57
2023-03-28T00:37:42.556Z,1.59
2023-03-28T00:38:46.002Z,1.57
2023-03-28T00:39:51.804Z,1.59
2023-03-28T00:40:57.742Z,1.63
2023-03-28T00:42:01.683Z,1.58
2023-03-28T00:43:04.291Z,1.63
2023-03-28T00:44:44.014Z,1.63
2023-03-28T00:45:53.044Z,1.68
2023-03-28T00:47:01.532Z,1.68
2023-03-28T00:48:15.457Z,1.77
2023-03-28T00:49:26.100Z,1.76
2023-03-28T00:50:34.343Z,1.81
2023-03-28T00:51:44.638Z,1.84
2023-03-28T00:52:55.287Z,1.87
2023-03-28T00:54:00.639Z,1.89
2023-03-28T00:55:05.879Z,1.85
2023-03-28T00:56:11.514Z,1.82
2023-03-28T00:57:16.466Z,1.83
2023-03-28T00:58:26.672Z,1.77
2023-03-28T00:59:35.126Z,1.70
2023-03-28T01:00:41.319Z,1.59
2023-03-28T01:01:45.055Z,1.68
2023-03-28T01:02:53.325Z,1.64
2023-03-28T01:04:02.277Z,1.72
2023-03-28T01:05:06.129Z,1.77
2023-03-28T01:06:10.175Z,1.76
2023-03-28T01:07:16.269Z,1.77
2023-03-28T01:08:24.835Z,1.76
2023-03-28T01:09:28.193Z,1.74
2023-03-28T01:10:32.659Z,1.75
2023-03-28T01:11:38.235Z,1.76
2023-03-28T01:12:43.234Z,1.76
2023-03-28T01:13:49.851Z,1.72
2023-03-28T01:14:52.678Z,1.67
2023-03-28T01:15:55.739Z,1.58
2023-03-28T01:16:58.294Z,1.50
2023-03-28T01:18:03.378Z,1.47
2023-03-28T01:19:21.983Z,1.44
2023-03-28T01:20:55.063Z,1.46
2023-03-28T01:22:13.798Z,1.39
2023-03-28T01:23:33.745Z,1.39
2023-03-28T01:25:20.388Z,1.37
2023-03-28T01:26:52.946Z,1.36
2023-03-28T01:28:05.350Z,1.25
2023-03-28T01:29:21.148Z,1.10
2023-03-28T01:30:57.997Z,1.15
2023-03-28T01:32:50.844Z,1.06
2023-03-28T01:34:38.611Z,0.97
2023-03-28T01:36:01.355Z,0.89
2023-03-28T01:37:23.715Z,0.82
2023-03-28T01:38:54.107Z,0.79
2023-03-28T01:40:29.165Z,0.88
2023-03-28T01:41:53.807Z,0.74
2023-03-28T01:43:14.294Z,0.72
2023-03-28T01:44:26.910Z,0.72
2023-03-28T01:46:18.589Z,0.65
2023-03-28T01:47:42.258Z,0.69
2023-03-28T01:49:02.615Z,0.57
2023-03-28T01:50:10.752Z,0.44
2023-03-28T01:51:27.412Z,0.33
2023-03-28T01:52:36.151Z,0.34
2023-03-28T01:54:07.668Z,0.45
2023-03-28T01:55:24.806Z,0.50
2023-03-28T01:56:38.172Z,0.54
2023-03-28T01:57:56.229Z,0.45
2023-03-28T01:59:09.192Z,0.46
2023-03-28T02:02:19.340Z,0.39
2023-03-28T02:03:46.194Z,0.51
2023-03-28T02:05:15.822Z,0.57
2023-03-28T02:06:21.227Z,0.60
2023-03-28T02:07:25.497Z,0.52
2023-03-28T02:08:42.906Z,0.52
2023-03-28T02:10:15.323Z,0.57
2023-03-28T02:11:56.269Z,0.46
2023-03-28T02:13:12.307Z,0.47
2023-03-28T02:14:27.596Z,0.50
2023-03-28T02:15:57.726Z,0.55
2023-03-28T02:17:06.298Z,0.53
2023-03-28T02:18:45.339Z,0.61
2023-03-28T02:20:19.356Z,0.53
2023-03-28T02:21:56.454Z,0.46
2023-03-28T02:23:19.406Z,0.43
2023-03-28T02:24:42.078Z,0.51
2023-03-28T02:25:49.359Z,0.51
2023-03-28T02:27:12.100Z,0.44
2023-03-28T02:28:31.705Z,0.52
2023-03-28T02:30:03.567Z,0.46
2023-03-28T02:31:16.206Z,0.42
2023-03-28T02:32:21.744Z,0.46
2023-03-28T02:33:41.705Z,0.31
2023-03-28T02:34:48.773Z,0.22
2023-03-28T02:36:08.295Z,0.25
2023-03-28T02:37:29.164Z,0.32
2023-03-28T02:39:04.725Z,0.36
2023-03-28T02:40:35.850Z,0.35
2023-03-28T02:41:56.925Z,0.35
2023-03-28T02:43:32.289Z,0.37
2023-03-28T02:45:16.411Z,0.34
2023-03-28T02:46:27.586Z,0.41
2023-03-28T02:47:54.579Z,0.40
2023-03-28T02:49:23.131Z,0.33
2023-03-28T02:50:36.941Z,0.28
2023-03-28T02:51:48.803Z,0.30
2023-03-28T02:53:04.003Z,0.21
2023-03-28T02:54:22.937Z,0.14
2023-03-28T02:56:02.282Z,0.20
2023-03-28T02:57:45.577Z,0.09
2023-03-28T02:58:55.564Z,0.13
2023-03-28T03:00:05.424Z,0.21
2023-03-28T03:01:10.435Z,0.09
2023-03-28T03:02:18.985Z,0.10
2023-03-28T03:03:23.319Z,0.09
2023-03-28T03:04:25.654Z,0.14
2023-03-28T03:05:28.011Z,0.14
2023-03-28T03:06:30.222Z,0.16
2023-03-28T03:07:32.469Z,0.19
2023-03-28T03:08:35.143Z,0.23
2023-03-28T03:09:37.461Z,0.29
2023-03-28T03:10:39.789Z,0.28
2023-03-28T03:11:41.964Z,0.22
2023-03-28T03:12:44.559Z,0.18
2023-03-28T03:13:47.172Z,0.14
2023-03-28T03:14:50.819Z,-0.02
2023-03-28T03:16:12.994Z,-0.16
2023-03-28T03:17:15.410Z,-0.11
2023-03-28T03:18:18.154Z,-0.08
2023-03-28T03:19:20.781Z,-0.04
2023-03-28T03:20:23.090Z,-0.03
2023-03-28T03:21:26.499Z,-0.01
2023-03-28T03:22:28.655Z,0.02
2023-03-28T03:23:30.939Z,0.05
2023-03-28T03:24:36.341Z,0.08
2023-03-28T03:25:39.294Z,0.10
2023-03-28T03:26:48.709Z,0.09
2023-03-28T03:27:51.988Z,0.12
2023-03-28T03:28:57.201Z,0.15
2023-03-28T03:30:04.124Z,0.13
2023-03-28T03:31:23.263Z,0.14
2023-03-28T03:32:45.347Z,0.16
2023-03-28T03:33:47.755Z,0.21
2023-03-28T03:34:53.167Z,0.20
2023-03-28T03:35:55.600Z,0.18
2023-03-28T03:36:57.797Z,0.24
2023-03-28T03:38:00.862Z,0.22
2023-03-28T03:39:03.685Z,0.21
2023-03-28T03:40:06.993Z,0.13
2023-03-28T03:41:11.239Z,0.15
2023-03-28T03:42:14.085Z,0.13
2023-03-28T03:43:16.741Z,0.17
2023-03-28T03:44:19.906Z,0.15
2023-03-28T03:45:22.635Z,0.15
2023-03-28T03:46:25.036Z,0.12
2023-03-28T03:47:28.456Z,0.11
2023-03-28T03:48:30.790Z,0.11
2023-03-28T03:49:34.861Z,0.18
2023-03-28T03:50:39.700Z,0.11
2023-03-28T03:51:48.644Z,0.09
2023-03-28T03:52:52.419Z,0.03
2023-03-28T03:54:00.443Z,0.04
2023-03-28T03:55:10.497Z,0.03
2023-03-28T03:56:15.255Z,0.00
2023-03-28T03:57:27.616Z,0.03
2023-03-28T03:58:34.623Z,0.09
2023-03-28T03:59:41.197Z,0.18
2023-03-28T04:00:48.819Z,0.17
2023-03-28T04:02:12.049Z,0.08
2023-03-28T04:03:26.473Z,0.06
2023-03-28T04:04:30.373Z,0.09
2023-03-28T04:05:48.925Z,0.01
2023-03-28T04:06:51.459Z,0.02
2023-03-28T04:07:53.839Z,-0.03
2023-03-28T04:09:03.187Z,-0.07
2023-03-28T04:10:31.304Z,-0.23
2023-03-28T04:11:34.717Z,-0.29
2023-03-28T04:12:37.059Z,-0.41
2023-03-28T04:13:41.030Z,-0.42
2023-03-28T04:14:43.425Z,-0.50
2023-03-28T04:16:04.987Z,-0.53
2023-03-28T04:17:16.135Z,-0.51
2023-03-28T04:18:20.460Z,-0.52
2023-03-28T04:19:24.361Z,-0.48
2023-03-28T04:20:29.720Z,-0.41
2023-03-28T04:21:42.865Z,-0.36
2023-03-28T04:22:46.500Z,-0.31
2023-03-28T04:23:52.175Z,-0.38
2023-03-28T04:25:04.581Z,-0.46
2023-03-28T04:26:15.325Z,-0.53
2023-03-28T04:27:26.279Z,-0.50
2023-03-28T04:28:29.285Z,-0.50
2023-03-28T04:29:37.020Z,-0.51
2023-03-28T04:30:58.171Z,-0.61
2023-03-28T04:32:05.512Z,-0.73
2023-03-28T04:33:33.697Z,-0.72
2023-03-28T04:34:38.894Z,-0.79
2023-03-28T04:35:51.735Z,-0.81
2023-03-28T04:36:56.782Z,-0.80
2023-03-28T04:37:59.882Z,-0.80
2023-03-28T04:39:03.779Z,-0.83
2023-03-28T04:40:21.655Z,-0.77
2023-03-28T04:41:34.126Z,-0.84
2023-03-28T04:42:55.612Z,-0.74
2023-03-28T04:44:07.849Z,-0.62
2023-03-28T04:45:18.821Z,-0.54
2023-03-28T04:46:22.841Z,-0.57
2023-03-28T04:47:25.484Z,-0.60
2023-03-28T04:48:28.040Z,-0.59
2023-03-28T04:49:30.394Z,-0.54
2023-03-28T04:50:35.139Z,-0.47
2023-03-28T04:51:38.105Z,-0.55
2023-03-28T04:52:40.476Z,-0.59
2023-03-28T04:53:42.970Z,-0.64
2023-03-28T04:55:10.186Z,-0.62
2023-03-28T04:56:13.940Z,-0.63
2023-03-28T04:57:16.473Z,-0.66
2023-03-28T04:58:23.705Z,-0.84
2023-03-28T04:59:26.288Z,-0.80
2023-03-28T05:00:29.736Z,-0.77
2023-03-28T05:01:33.019Z,-0.79
2023-03-28T05:02:56.346Z,-0.86
2023-03-28T05:04:01.178Z,-0.83
2023-03-28T05:05:03.903Z,-0.81
2023-03-28T05:06:07.119Z,-0.88
2023-03-28T05:07:09.671Z,-0.84
2023-03-28T05:08:13.225Z,-0.93
2023-03-28T05:09:16.660Z,-0.91
2023-03-28T05:10:18.920Z,-0.90
2023-03-28T05:11:24.690Z,-0.88
2023-03-28T05:12:26.893Z,-0.80
2023-03-28T05:13:39.590Z,-0.82
2023-03-28T05:14:50.808Z,-0.91
2023-03-28T05:15:53.692Z,-0.88
2023-03-28T05:17:18.593Z,-0.95
2023-03-28T05:18:31.188Z,-0.93
2023-03-28T05:19:33.614Z,-0.84
2023-03-28T05:20:42.646Z,-0.85
2023-03-28T05:21:44.897Z,-0.81
2023-03-28T05:22:49.099Z,-0.86
2023-03-28T05:23:51.968Z,-0.75
2023-03-28T05:24:57.810Z,-0.70
2023-03-28T05:26:01.064Z,-0.51
2023-03-28T05:27:06.537Z,-0.46
2023-03-28T05:28:09.124Z,-0.45
2023-03-28T05:29:22.652Z,-0.39
2023-03-28T05:30:26.088Z,-0.44
2023-03-28T05:31:31.084Z,-0.59
2023-03-28T05:32:49.993Z,-0.68
2023-03-28T05:33:52.410Z,-0.65
2023-03-28T05:35:13.402Z,-0.64
2023-03-28T05:36:15.718Z,-0.61
2023-03-28T05:37:18.118Z,-0.42
2023-03-28T05:38:24.935Z,-0.25
2023-03-28T05:39:31.658Z,0.10
2023-03-28T05:40:42.357Z,0.76
2023-03-28T05:41:44.668Z,1.30
2023-03-28T05:42:47.221Z,2.25
2023-03-28T05:43:51.501Z,3.54
2023-03-28T05:45:12.407Z,5.25
2023-03-28T05:46:26.363Z,6.80
2023-03-28T05:47:29.609Z,7.45
2023-03-28T05:48:33.284Z,7.39
2023-03-28T05:49:35.553Z,7.74
2023-03-28T05:50:38.350Z,8.18
2023-03-28T05:58:00.195Z,10.06
2023-03-28T05:59:11.662Z,10.35
2023-03-28T06:00:15.126Z,10.58
2023-03-28T06:01:29.167Z,10.19
2023-03-28T06:02:36.214Z,9.94
2023-03-28T06:03:40.142Z,10.06
2023-03-28T06:04:44.975Z,10.34
2023-03-28T06:05:49.375Z,10.20
2023-03-28T06:06:57.829Z,10.59
2023-03-28T06:08:02.628Z,10.89
2023-03-28T06:09:05.302Z,11.52
2023-03-28T06:10:20.985Z,11.67
2023-03-28T06:11:49.542Z,11.60
2023-03-28T06:12:51.819Z,11.90
2023-03-28T06:13:54.204Z,12.13
2023-03-28T06:14:57.088Z,11.76
2023-03-28T06:16:03.121Z,11.06
2023-03-28T06:17:08.557Z,10.61
2023-03-28T06:18:20.753Z,10.17
2023-03-28T06:19:25.962Z,8.81
2023-03-28T06:20:30.638Z,6.90
2023-03-28T06:21:33.853Z,5.17
2023-03-28T06:22:40.671Z,4.05
2023-03-28T06:23:45.780Z,3.32
2023-03-28T06:24:58.539Z,2.67
2023-03-28T06:26:03.428Z,2.20
2023-03-28T06:27:13.184Z,2.05
2023-03-28T06:28:15.723Z,2.08
2023-03-28T06:29:41.250Z,1.96
2023-03-28T06:30:47.982Z,1.83
2023-03-28T06:31:50.302Z,1.71
2023-03-28T06:32:54.122Z,1.64
2023-03-28T06:33:56.426Z,1.61
2023-03-28T06:34:59.189Z,1.62
2023-03-28T06:36:01.677Z,1.62
2023-03-28T06:37:07.739Z,1.62
2023-03-28T06:38:36.081Z,1.49
2023-03-28T06:39:39.492Z,1.62
2023-03-28T06:40:41.797Z,1.61
2023-03-28T06:41:44.588Z,1.64
2023-03-28T06:42:46.891Z,1.62
2023-03-28T06:43:59.001Z,1.68
2023-03-28T06:45:30.588Z,1.83
2023-03-28T06:46:37.784Z,1.84
2023-03-28T06:47:40.612Z,1.82
2023-03-28T06:48:43.184Z,1.77
2023-03-28T06:50:04.425Z,1.86
2023-03-28T06:51:19.374Z,2.00
2023-03-28T06:52:23.090Z,2.11
2023-03-28T06:53:27.368Z,2.24
2023-03-28T06:54:29.565Z,2.23
2023-03-28T06:55:35.405Z,2.42
2023-03-28T06:56:37.824Z,2.34
2023-03-28T06:57:40.319Z,2.39
2023-03-28T06:59:05.770Z,2.44
2023-03-28T07:00:09.464Z,2.53
2023-03-28T07:01:34.922Z,2.57
2023-03-28T07:02:59.936Z,2.79
2023-03-28T07:04:03.055Z,2.76
2023-03-28T07:05:06.074Z,2.77
2023-03-28T07:06:10.177Z,3.00
2023-03-28T07:07:12.462Z,3.04
2023-03-28T07:08:14.835Z,3.08
2023-03-28T07:09:17.189Z,3.22
2023-03-28T07:10:25.383Z,3.31
2023-03-28T07:11:28.103Z,3.41
2023-03-28T07:12:30.656Z,3.28
2023-03-28T07:13:32.955Z,3.61
2023-03-28T07:14:44.613Z,3.73
2023-03-28T07:15:46.899Z,3.74
2023-03-28T07:16:49.220Z,3.68
2023-03-28T07:17:53.132Z,3.80
2023-03-28T07:18:55.961Z,3.45
2023-03-28T07:20:06.721Z,3.44
2023-03-28T07:21:11.198Z,3.45
2023-03-28T07:22:13.448Z,3.44
2023-03-28T07:23:15.746Z,3.41
2023-03-28T07:24:17.963Z,3.67
2023-03-28T07:25:37.542Z,3.66
2023-03-28T07:26:39.971Z,3.59
2023-03-28T07:27:44.292Z,3.52
2023-03-28T07:28:49.783Z,3.71
2023-03-28T07:29:52.213Z,3.88
2023-03-28T07:30:54.756Z,4.29
2023-03-28T07:31:57.438Z,4.16
2023-03-28T07:33:13.818Z,4.50
2023-03-28T07:34:20.543Z,4.46
2023-03-28T07:35:23.489Z,4.76
2023-03-28T07:36:28.890Z,4.87
2023-03-28T07:37:37.380Z,4.72
2023-03-28T07:38:47.268Z,4.71
2023-03-28T07:39:51.215Z,4.87
2023-03-28T07:41:00.636Z,5.08
2023-03-28T07:42:03.461Z,5.28
2023-03-28T07:43:06.013Z,5.58
2023-03-28T07:44:08.512Z,5.90
2023-03-28T07:45:11.457Z,5.82
2023-03-28T07:46:15.529Z,5.45
2023-03-28T07:47:18.269Z,5.35
2023-03-28T07:48:21.265Z,5.61
2023-03-28T07:49:23.726Z,5.85
2023-03-28T07:50:26.179Z,6.35
2023-03-28T07:51:28.993Z,6.80
2023-03-28T07:52:31.269Z,6.81
2023-03-28T07:53:34.779Z,6.66
2023-03-28T07:54:37.789Z,6.93
2023-03-28T07:55:54.266Z,7.34
2023-03-28T07:57:04.035Z,7.06
2023-03-28T07:58:24.896Z,7.55
2023-03-28T07:59:30.313Z,7.33
2023-03-28T08:00:33.089Z,7.45
2023-03-28T08:02:04.358Z,7.83
2023-03-28T08:03:07.975Z,7.83
2023-03-28T08:04:11.847Z,8.10
2023-03-28T08:05:34.098Z,7.90
2023-03-28T08:06:40.231Z,8.19
2023-03-28T08:07:45.951Z,8.38
2023-03-28T08:08:48.571Z,8.57
2023-03-28T08:10:14.011Z,8.65
2023-03-28T08:11:16.438Z,8.35
2023-03-28T08:12:19.594Z,7.74
2023-03-28T08:13:24.333Z,7.54
2023-03-28T08:14:30.561Z,7.73
2023-03-28T08:15:33.281Z,7.96
2023-03-28T08:16:35.853Z,8.29
2023-03-28T08:17:38.273Z,8.66
2023-03-28T08:18:41.578Z,8.75
2023-03-28T08:19:44.299Z,8.54
2023-03-28T08:20:48.095Z,8.52
2023-03-28T08:21:51.593Z,8.68
2023-03-28T08:22:54.218Z,8.19
2023-03-28T08:24:35.180Z,8.09
2023-03-28T08:25:45.279Z,8.27
2023-03-28T08:26:50.647Z,7.87
2023-03-28T08:27:53.617Z,7.69
2023-03-28T08:28:58.642Z,7.15
2023-03-28T08:30:02.419Z,7.31
2023-03-28T08:31:14.339Z,7.22
2023-03-28T08:32:18.713Z,7.28
2023-03-28T08:33:21.999Z,7.61
2023-03-28T08:34:24.670Z,7.81
2023-03-28T08:35:27.528Z,7.58
2023-03-28T08:36:33.475Z,7.20
2023-03-28T08:37:36.035Z,7.53
2023-03-28T08:38:38.609Z,7.99
2023-03-28T08:39:42.632Z,8.55
2023-03-28T08:40:58.721Z,9.13
2023-03-28T08:42:19.907Z,9.14
2023-03-28T08:43:36.943Z,8.56
2023-03-28T08:44:52.144Z,7.90
2023-03-28T08:45:59.822Z,8.39
2023-03-28T08:47:22.549Z,8.63
2023-03-28T08:48:30.900Z,8.86
2023-03-28T08:49:42.929Z,8.69
2023-03-28T08:51:08.422Z,8.41
2023-03-28T08:52:15.998Z,8.03
2023-03-28T08:53:30.266Z,8.39
2023-03-28T08:54:40.458Z,9.31
2023-03-28T08:55:45.694Z,9.63
2023-03-28T08:56:53.758Z,8.96
2023-03-28T08:57:57.307Z,8.37
2023-03-28T08:59:15.986Z,8.71
2023-03-28T09:00:24.461Z,8.31
2023-03-28T09:01:29.439Z,8.70
2023-03-28T09:02:32.093Z,8.60
2023-03-28T09:03:36.271Z,8.39
2023-03-28T09:04:44.974Z,8.11
2023-03-28T09:06:04.797Z,8.33
2023-03-28T09:07:22.370Z,9.06
2023-03-28T09:08:38.116Z,9.60
2023-03-28T09:09:55.256Z,8.80
2023-03-28T09:11:23.480Z,9.34
2023-03-28T09:12:35.352Z,9.10
2023-03-28T09:13:49.414Z,8.93
2023-03-28T09:15:17.596Z,9.19
2023-03-28T09:16:37.764Z,9.42
2023-03-28T09:18:28.764Z,9.29
2023-03-28T09:19:48.428Z,9.34
2023-03-28T09:21:47.189Z,10.85
2023-03-28T09:23:09.770Z,11.10
2023-03-28T09:25:19.383Z,10.67
2023-03-28T09:26:32.812Z,10.72
2023-03-28T09:27:56.109Z,11.18
2023-03-28T09:29:10.896Z,11.00
2023-03-28T09:30:18.987Z,11.10
2023-03-28T09:31:27.793Z,10.79
2023-03-28T09:32:38.405Z,10.27
2023-03-28T09:33:45.774Z,10.75
2023-03-28T09:34:53.628Z,10.62
2023-03-28T09:35:57.541Z,10.44
2023-03-28T09:37:13.502Z,10.36
2023-03-28T09:38:36.103Z,10.63
2023-03-28T09:39:49.384Z,10.29
2023-03-28T09:40:56.095Z,10.09
2023-03-28T09:42:14.765Z,10.04
2023-03-28T09:43:28.750Z,10.05
2023-03-28T09:45:22.748Z,10.32
2023-03-28T09:46:46.940Z,10.84
2023-03-28T09:48:07.304Z,9.94
2023-03-28T09:49:25.586Z,10.07
2023-03-28T09:50:34.554Z,10.29
2023-03-28T09:51:37.918Z,9.54
2023-03-28T09:52:40.345Z,9.45
2023-03-28T09:53:43.330Z,9.44
2023-03-28T09:54:46.963Z,9.45
2023-03-28T09:56:03.376Z,9.91
2023-03-28T09:57:08.514Z,9.60
2023-03-28T09:58:18.234Z,10.23
2023-03-28T09:59:43.314Z,10.56
2023-03-28T10:00:51.906Z,10.91
2023-03-28T10:02:29.284Z,10.50
2023-03-28T10:03:35.742Z,10.53
2023-03-28T10:04:41.743Z,9.91
2023-03-28T10:06:23.695Z,10.11
2023-03-28T10:07:32.679Z,10.56
2023-03-28T10:08:50.811Z,10.59
2023-03-28T10:10:25.341Z,10.73
2023-03-28T10:11:54.162Z,10.37
2023-03-28T10:13:02.190Z,10.26
2023-03-28T10:14:06.078Z,10.05
2023-03-28T10:15:39.056Z,10.32
2023-03-28T10:17:23.309Z,11.07
2023-03-28T10:18:28.340Z,11.75
2023-03-28T10:19:52.257Z,11.78
2023-03-28T10:21:09.044Z,11.56
2023-03-28T10:22:21.335Z,12.38
2023-03-28T10:23:26.711Z,12.84
2023-03-28T10:24:32.806Z,12.08
2023-03-28T10:25:46.015Z,12.22
2023-03-28T10:26:49.341Z,12.21
2023-03-28T10:27:52.582Z,11.73
2023-03-28T10:29:02.249Z,12.14
2023-03-28T10:30:25.278Z,12.32
2023-03-28T10:31:31.775Z,13.10
2023-03-28T10:33:21.214Z,11.56
2023-03-28T10:35:07.748Z,11.72
2023-03-28T10:36:48.025Z,11.35
2023-03-28T10:37:56.808Z,12.33
2023-03-28T10:39:23.171Z,12.01
2023-03-28T10:41:01.376Z,13.01
2023-03-28T10:42:18.451Z,12.35
2023-03-28T10:43:49.720Z,12.15
2023-03-28T10:45:07.190Z,11.37
2023-03-28T10:46:27.786Z,12.43
2023-03-28T10:47:55.823Z,11.58
2023-03-28T10:49:03.916Z,11.98
2023-03-28T10:50:21.154Z,12.03
2023-03-28T10:51:25.963Z,10.96
2023-03-28T10:52:43.192Z,11.49
2023-03-28T10:54:06.478Z,12.12
2023-03-28T10:55:18.332Z,11.88
2023-03-28T10:57:12.682Z,11.40
2023-03-28T10:58:32.590Z,11.81
2023-03-28T10:59:51.308Z,11.48
2023-03-28T11:01:18.267Z,10.42
2023-03-28T11:03:00.170Z,11.31
2023-03-28T11:04:24.179Z,11.75
2023-03-28T11:05:42.408Z,11.91
2023-03-28T11:06:54.932Z,12.28
2023-03-28T11:08:30.798Z,11.44
2023-03-28T11:09:46.635Z,11.45
2023-03-28T11:11:47.217Z,12.05
2023-03-28T11:13:04.300Z,12.55
2023-03-28T11:14:22.129Z,12.60
2023-03-28T11:15:29.622Z,12.33
2023-03-28T11:16:57.526Z,12.64
2023-03-28T11:18:31.115Z,12.26
2023-03-28T11:20:17.325Z,11.28
2023-03-28T11:21:36.859Z,10.88
2023-03-28T11:23:05.627Z,10.86
2023-03-28T11:24:36.213Z,11.17
2023-03-28T11:26:13.233Z,11.45
2023-03-28T11:27:53.890Z,12.01
2023-03-28T11:29:19.648Z,12.42
2023-03-28T11:30:28.238Z,12.56
2023-03-28T11:32:19.750Z,11.17
2023-03-28T11:33:40.628Z,11.45
2023-03-28T11:35:17.914Z,11.53
2023-03-28T11:36:29.390Z,11.94
2023-03-28T11:37:46.327Z,12.12
2023-03-28T11:39:01.159Z,11.97
2023-03-28T11:40:40.584Z,11.98
2023-03-28T11:41:50.067Z,11.87
2023-03-28T11:43:13.601Z,11.93
2023-03-28T11:44:28.757Z,12.30
2023-03-28T11:45:52.043Z,12.22
2023-03-28T11:47:04.737Z,12.35
2023-03-28T11:48:12.474Z,12.11
2023-03-28T11:49:34.825Z,12.21
2023-03-28T11:51:01.392Z,11.96
2023-03-28T11:52:40.322Z,12.26
2023-03-28T11:54:00.736Z,12.33
2023-03-28T11:55:27.559Z,12.27
2023-03-28T11:56:56.693Z,11.86
2023-03-28T11:58:22.487Z,11.87
2023-03-28T11:59:46.423Z,11.16
2023-03-28T12:01:06.690Z,11.59
2023-03-28T12:02:25.879Z,11.83
2023-03-28T12:03:46.536Z,11.72
2023-03-28T12:04:57.102Z,11.99
2023-03-28T12:06:12.985Z,11.82
2023-03-28T12:07:30.288Z,11.11
2023-03-28T12:08:43.853Z,10.66
2023-03-28T12:09:49.356Z,10.45
2023-03-28T12:10:57.994Z,10.78
2023-03-28T12:12:51.244Z,11.45
2023-03-28T12:14:41.618Z,11.13
2023-03-28T12:16:07.084Z,10.84
2023-03-28T12:17:23.059Z,11.38
2023-03-28T12:19:06.082Z,11.23
2023-03-28T12:20:59.832Z,11.08
2023-03-28T12:22:22.661Z,11.83
2023-03-28T12:23:41.924Z,12.12
2023-03-28T12:25:13.737Z,12.33
2023-03-28T12:26:28.848Z,12.27
2023-03-28T12:27:42.820Z,11.92
2023-03-28T12:28:58.451Z,11.00
2023-03-28T12:30:23.705Z,11.36
2023-03-28T12:31:44.811Z,11.45
2023-03-28T12:33:09.418Z,11.66
2023-03-28T12:34:38.179Z,12.17
2023-03-28T12:35:52.366Z,12.20
2023-03-28T12:37:11.899Z,12.22
2023-03-28T12:38:29.161Z,11.19
2023-03-28T12:39:54.957Z,10.99
2023-03-28T12:41:06.185Z,11.42
2023-03-28T12:42:12.882Z,11.30
2023-03-28T12:43:18.695Z,10.99
2023-03-28T12:44:28.071Z,11.05
2023-03-28T12:45:36.910Z,11.66
2023-03-28T12:46:47.336Z,12.24
2023-03-28T12:47:54.368Z,12.46
2023-03-28T12:49:00.774Z,12.73
2023-03-28T12:50:12.146Z,12.80
2023-03-28T12:51:30.080Z,11.47
2023-03-28T12:52:34.946Z,12.22
2023-03-28T12:54:07.466Z,12.48
2023-03-28T12:55:24.693Z,11.18
2023-03-28T12:56:27.866Z,10.28
2023-03-28T12:57:44.908Z,10.03
2023-03-28T12:59:00.881Z,10.32
2023-03-28T13:00:13.450Z,10.68
2023-03-28T13:01:40.921Z,10.32
2023-03-28T13:03:27.988Z,10.17
2023-03-28T13:04:52.330Z,10.72
2023-03-28T13:06:24.973Z,10.96
2023-03-28T13:07:46.939Z,10.54
2023-03-28T13:09:16.083Z,10.69
2023-03-28T13:10:30.512Z,10.28
2023-03-28T13:11:56.976Z,10.69
2023-03-28T13:13:44.041Z,11.17
2023-03-28T13:15:02.322Z,10.73
2023-03-28T13:16:15.328Z,10.95
2023-03-28T13:17:26.328Z,10.74
2023-03-28T13:18:34.128Z,10.23
2023-03-28T13:19:42.672Z,9.80
2023-03-28T13:20:48.004Z,9.89
2023-03-28T13:21:57.507Z,10.82
2023-03-28T13:23:07.460Z,11.23
2023-03-28T13:24:29.941Z,11.14
2023-03-28T13:25:32.965Z,11.38
2023-03-28T13:26:53.990Z,11.93
2023-03-28T13:28:11.365Z,12.21
2023-03-28T13:29:13.611Z,12.00
2023-03-28T13:30:21.155Z,11.61
2023-03-28T13:31:26.052Z,12.26
2023-03-28T13:32:35.234Z,12.35
2023-03-28T13:33:44.967Z,12.48
2023-03-28T13:34:56.654Z,12.83
2023-03-28T13:35:58.990Z,12.73
2023-03-28T13:37:22.579Z,12.16
2023-03-28T13:38:28.177Z,11.24
2023-03-28T13:39:30.486Z,11.08
2023-03-28T13:41:09.170Z,11.71
2023-03-28T13:42:56.993Z,11.77
2023-03-28T13:44:01.864Z,11.54
2023-03-28T13:45:23.180Z,11.64
2023-03-28T13:46:43.101Z,11.98
2023-03-28T13:47:46.046Z,11.90
2023-03-28T13:49:02.833Z,11.60
2023-03-28T13:50:26.518Z,11.27
2023-03-28T13:51:39.106Z,10.15
2023-03-28T13:52:41.367Z,9.93
2023-03-28T13:53:48.073Z,9.95
2023-03-28T13:54:54.357Z,10.41
2023-03-28T13:56:18.678Z,10.77
2023-03-28T13:57:25.687Z,9.94
2023-03-28T13:58:29.030Z,10.08
2023-03-28T13:59:39.235Z,10.54
2023-03-28T14:00:41.598Z,10.37
2023-03-28T14:01:54.154Z,10.14
2023-03-28T14:03:13.159Z,10.59
2023-03-28T14:04:21.573Z,11.32
2023-03-28T14:05:27.241Z,11.32
2023-03-28T14:06:30.602Z,11.15
2023-03-28T14:07:32.910Z,10.59
2023-03-28T14:08:35.326Z,10.33
2023-03-28T14:09:37.561Z,10.42
2023-03-28T14:10:42.842Z,10.23
2023-03-28T14:11:45.996Z,10.47
2023-03-28T14:12:52.577Z,10.54
2023-03-28T14:14:14.201Z,10.14
2023-03-28T14:15:25.702Z,10.19
2023-03-28T14:16:27.969Z,10.27
2023-03-28T14:17:33.588Z,10.84
2023-03-28T14:18:41.334Z,10.62
2023-03-28T14:19:47.863Z,11.09
2023-03-28T14:20:50.237Z,11.36
2023-03-28T14:21:53.540Z,11.47
2023-03-28T14:23:00.298Z,11.77
2023-03-28T14:24:07.024Z,12.05
2023-03-28T14:25:14.887Z,11.54
2023-03-28T14:26:20.109Z,11.41
2023-03-28T14:27:38.491Z,11.09
2023-03-28T14:28:41.694Z,11.13
2023-03-28T14:29:54.594Z,11.41
2023-03-28T14:30:57.541Z,11.54
2023-03-28T14:32:00.719Z,11.85
2023-03-28T14:33:14.343Z,11.74
2023-03-28T14:34:38.637Z,11.67
2023-03-28T14:35:42.284Z,11.39
2023-03-28T14:36:58.582Z,11.44
2023-03-28T14:38:13.958Z,11.38
2023-03-28T14:39:18.312Z,11.64
2023-03-28T14:40:30.432Z,11.84
2023-03-28T14:41:36.085Z,11.60
2023-03-28T14:42:38.321Z,11.74
2023-03-28T14:43:40.628Z,11.76
2023-03-28T14:44:46.451Z,11.68
2023-03-28T14:45:52.758Z,11.57
2023-03-28T14:46:59.848Z,10.99
2023-03-28T14:48:05.953Z,10.94
2023-03-28T14:49:13.617Z,10.69
2023-03-28T14:50:20.167Z,10.94
2023-03-28T14:51:22.795Z,11.21
2023-03-28T14:52:36.613Z,11.41
2023-03-28T14:53:42.177Z,12.05
2023-03-28T14:54:47.091Z,11.74
2023-03-28T14:55:50.888Z,11.92
2023-03-28T14:56:55.599Z,11.92
2023-03-28T14:57:59.713Z,12.12
2023-03-28T14:59:02.761Z,11.48
2023-03-28T15:00:12.539Z,11.52
2023-03-28T15:01:22.652Z,11.55
2023-03-28T15:02:40.805Z,11.94
2023-03-28T15:03:47.163Z,12.06
2023-03-28T15:04:50.408Z,11.93
2023-03-28T15:05:54.778Z,11.82
2023-03-28T15:06:58.369Z,11.52
2023-03-28T15:08:02.638Z,11.51
2023-03-28T15:09:28.369Z,11.08
2023-03-28T15:10:31.383Z,11.49
2023-03-28T15:11:36.353Z,11.64
2023-03-28T15:12:49.711Z,11.78
2023-03-28T15:14:15.996Z,11.33
2023-03-28T15:15:27.079Z,11.19
2023-03-28T15:16:32.226Z,11.62
2023-03-28T15:17:37.286Z,11.69
2023-03-28T15:18:44.626Z,11.60
2023-03-28T15:19:52.634Z,11.43
2023-03-28T15:21:00.216Z,11.48
2023-03-28T15:22:08.360Z,11.21
2023-03-28T15:23:32.232Z,11.10
2023-03-28T15:24:36.684Z,10.70
2023-03-28T15:25:39.116Z,10.88
2023-03-28T15:26:44.133Z,11.22
2023-03-28T15:27:51.368Z,11.48
2023-03-28T15:28:56.410Z,11.71
2023-03-28T15:30:05.858Z,11.65
2023-03-28T15:31:10.038Z,11.21
2023-03-28T15:32:16.981Z,11.16
2023-03-28T15:33:22.127Z,11.31
2023-03-28T15:34:29.440Z,11.18
2023-03-28T15:35:39.976Z,10.77
2023-03-28T15:36:57.708Z,10.70
2023-03-28T15:38:21.678Z,10.49
2023-03-28T15:39:27.124Z,10.64
2023-03-28T15:40:36.697Z,10.67
2023-03-28T15:41:49.318Z,10.35
2023-03-28T15:42:52.314Z,10.49
2023-03-28T15:43:54.558Z,10.42
2023-03-28T15:44:56.807Z,10.97
2023-03-28T15:46:01.578Z,10.88
2023-03-28T15:47:13.091Z,10.59
2023-03-28T15:48:19.886Z,10.49
2023-03-28T15:49:22.214Z,10.68
2023-03-28T15:50:30.583Z,10.70
2023-03-28T15:51:47.510Z,10.78
2023-03-28T15:52:55.359Z,10.41